Lakeport, New York
Current Conditions -  °F | °C
As of 10:54 PM on Sunday 21 Dec 2014 (Local Time) from KSYR Reporting Station
Overcast Overcast  
Wind Chill: 25°   Ceiling: 2500
Heat Index: 30°   Visibility: 8mi
Dew Point: 26°   Wind: 5mph
Humidity: 85%   Direction: 90°E
Pressure: 30.34"   Gusts: NA
Location:  43.0618°N, 75.8688°W
Report Text: KSYR 220354Z 09004KT 8SM OVC025 M01/M03 A3034 RMK AO2 SNE02 SLP275 P0000 T10111033 $
Loading
Personal Weather Stations






























Interactive Weather Map New forecast layout! Learn more

10-Day Weather Forecast

Advertisements
Track Severe Weather on mobile